sensor_id;sensor_type;location;lat;lon;timestamp;pressure;altitude;pressure_sealevel;temperature;humidity
40490;BME280;26196;52.302;10.572;2023-01-06T00:02:48;100985.91;;;12.38;63.58
40490;BME280;26196;52.302;10.572;2023-01-06T00:06:48;100978.06;;;12.36;63.78
40490;BME280;26196;52.302;10.572;2023-01-06T00:10:49;100977.22;;;12.36;63.85
40490;BME280;26196;52.302;10.572;2023-01-06T00:14:49;100971.06;;;12.37;63.77
40490;BME280;26196;52.302;10.572;2023-01-06T00:18:56;100962.31;;;12.36;63.43
40490;BME280;26196;52.302;10.572;2023-01-06T00:22:57;100964.09;;;12.36;63.52
40490;BME280;26196;52.302;10.572;2023-01-06T00:26:57;100951.81;;;12.36;63.53
40490;BME280;26196;52.302;10.572;2023-01-06T00:30:57;100954.44;;;12.36;63.31
40490;BME280;26196;52.302;10.572;2023-01-06T00:34:58;100952.69;;;12.37;63.80
40490;BME280;26196;52.302;10.572;2023-01-06T00:38:58;100945.72;;;12.36;63.46
40490;BME280;26196;52.302;10.572;2023-01-06T00:42:59;100935.22;;;12.36;63.48
40490;BME280;26196;52.302;10.572;2023-01-06T00:46:59;100896.31;;;12.19;63.13
40490;BME280;26196;52.302;10.572;2023-01-06T00:51:00;100929.97;;;12.36;63.80
40490;BME280;26196;52.302;10.572;2023-01-06T00:55:00;100928.22;;;12.35;63.49
40490;BME280;26196;52.302;10.572;2023-01-06T00:59:01;100920.34;;;12.35;63.29
40490;BME280;26196;52.302;10.572;2023-01-06T01:03:01;100922.97;;;12.35;63.54
40490;BME280;26196;52.302;10.572;2023-01-06T01:07:02;100920.44;;;12.32;63.79
40490;BME280;26196;52.302;10.572;2023-01-06T01:11:05;100917.81;;;12.32;63.89
40490;BME280;26196;52.302;10.572;2023-01-06T01:15:07;100925.59;;;12.35;63.86
40490;BME280;26196;52.302;10.572;2023-01-06T01:19:08;100918.59;;;12.35;63.02
40490;BME280;26196;52.302;10.572;2023-01-06T01:23:08;100916.03;;;12.34;63.66
40490;BME280;26196;52.302;10.572;2023-01-06T01:27:09;100918.66;;;12.34;63.49
40490;BME280;26196;52.302;10.572;2023-01-06T01:31:09;100919.53;;;12.33;63.46
40490;BME280;26196;52.302;10.572;2023-01-06T01:35:09;100916.78;;;12.37;63.70
40490;BME280;26196;52.302;10.572;2023-01-06T01:39:12;100915.97;;;12.35;63.18
40490;BME280;26196;52.302;10.572;2023-01-06T01:43:13;100916.84;;;12.36;63.61
40490;BME280;26196;52.302;10.572;2023-01-06T01:51:41;100916.75;;;12.39;63.53
40490;BME280;26196;52.302;10.572;2023-01-06T01:55:42;100917.50;;;12.42;63.29
40490;BME280;26196;52.302;10.572;2023-01-06T01:59:43;100908.69;;;12.45;63.08
40490;BME280;26196;52.302;10.572;2023-01-06T02:03:44;100909.63;;;12.44;63.10
40490;BME280;26196;52.302;10.572;2023-01-06T02:07:46;100897.44;;;12.41;63.00
40490;BME280;26196;52.302;10.572;2023-01-06T02:11:46;100902.69;;;12.41;63.08
40490;BME280;26196;52.302;10.572;2023-01-06T02:15:57;100901.84;;;12.41;63.09
40490;BME280;26196;52.302;10.572;2023-01-06T02:24:55;100890.50;;;12.39;63.78
40490;BME280;26196;52.302;10.572;2023-01-06T02:33:26;100867.59;;;12.44;63.08
40490;BME280;26196;52.302;10.572;2023-01-06T02:42:28;100861.53;;;12.42;63.11
40490;BME280;26196;52.302;10.572;2023-01-06T02:51:17;100857.03;;;12.45;61.69
40490;BME280;26196;52.302;10.572;2023-01-06T02:55:21;100840.44;;;12.45;61.83
40490;BME280;26196;52.302;10.572;2023-01-06T02:59:32;100828.13;;;12.47;61.62
40490;BME280;26196;52.302;10.572;2023-01-06T03:03:36;100816.84;;;12.43;61.72
40490;BME280;26196;52.302;10.572;2023-01-06T03:07:38;100826.34;;;12.47;61.47
40490;BME280;26196;52.302;10.572;2023-01-06T03:11:39;100831.63;;;12.46;62.69
40490;BME280;26196;52.302;10.572;2023-01-06T03:15:41;100829.94;;;12.45;62.69
40490;BME280;26196;52.302;10.572;2023-01-06T03:19:41;100822.88;;;12.47;61.77
40490;BME280;26196;52.302;10.572;2023-01-06T03:23:44;100817.63;;;12.47;61.81
40490;BME280;26196;52.302;10.572;2023-01-06T03:27:44;100812.38;;;12.47;61.43
40490;BME280;26196;52.302;10.572;2023-01-06T03:31:57;100813.31;;;12.44;63.60
40490;BME280;26196;52.302;10.572;2023-01-06T03:44:37;100801.06;;;12.45;62.92
40490;BME280;26196;52.302;10.572;2023-01-06T03:49:05;100792.41;;;12.41;63.67
40490;BME280;26196;52.302;10.572;2023-01-06T03:57:33;100795.19;;;12.37;63.41
40490;BME280;26196;52.302;10.572;2023-01-06T04:01:36;100784.69;;;12.37;63.53
40490;BME280;26196;52.302;10.572;2023-01-06T04:05:38;100779.44;;;12.37;62.89
40490;BME280;26196;52.302;10.572;2023-01-06T04:09:38;100778.56;;;12.36;63.36
40490;BME280;26196;52.302;10.572;2023-01-06T04:13:38;100774.19;;;12.37;63.53
40490;BME280;26196;52.302;10.572;2023-01-06T04:17:40;100770.63;;;12.38;63.47
40490;BME280;26196;52.302;10.572;2023-01-06T04:21:41;100775.81;;;12.41;63.12
40490;BME280;26196;52.302;10.572;2023-01-06T04:25:41;100770.63;;;12.38;63.70
40490;BME280;26196;52.302;10.572;2023-01-06T04:29:42;100753.06;;;12.40;62.30
40490;BME280;26196;52.302;10.572;2023-01-06T04:33:42;100755.56;;;12.44;62.41
40490;BME280;26196;52.302;10.572;2023-01-06T04:37:42;100752.97;;;12.43;63.40
40490;BME280;26196;52.302;10.572;2023-01-06T04:41:43;100749.50;;;12.42;62.48
40490;BME280;26196;52.302;10.572;2023-01-06T04:45:43;100730.28;;;12.42;62.15
40490;BME280;26196;52.302;10.572;2023-01-06T04:49:44;100736.38;;;12.42;62.45
40490;BME280;26196;52.302;10.572;2023-01-06T04:53:44;100731.13;;;12.42;62.81
40490;BME280;26196;52.302;10.572;2023-01-06T04:57:44;100734.69;;;12.40;63.52
40490;BME280;26196;52.302;10.572;2023-01-06T05:01:45;100729.53;;;12.38;63.18
40490;BME280;26196;52.302;10.572;2023-01-06T05:05:45;100734.78;;;12.38;63.33
40490;BME280;26196;52.302;10.572;2023-01-06T05:09:45;100726.81;;;12.40;63.44
40490;BME280;26196;52.302;10.572;2023-01-06T05:13:46;100724.91;;;12.45;61.65
40490;BME280;26196;52.302;10.572;2023-01-06T05:17:47;100717.88;;;12.47;61.54
40490;BME280;26196;52.302;10.572;2023-01-06T05:21:47;100710.84;;;12.47;61.87
40490;BME280;26196;52.302;10.572;2023-01-06T05:25:49;100714.41;;;12.45;61.61
40490;BME280;26196;52.302;10.572;2023-01-06T05:29:51;100707.41;;;12.45;61.63
40490;BME280;26196;52.302;10.572;2023-01-06T05:33:51;100705.63;;;12.46;61.44
40490;BME280;26196;52.302;10.572;2023-01-06T05:37:55;100707.47;;;12.44;62.35
40490;BME280;26196;52.302;10.572;2023-01-06T05:41:55;100710.81;;;12.49;61.59
40490;BME280;26196;52.302;10.572;2023-01-06T05:45:56;100716.06;;;12.49;62.51
40490;BME280;26196;52.302;10.572;2023-01-06T05:49:56;100706.50;;;12.46;63.10
40490;BME280;26196;52.302;10.572;2023-01-06T05:53:56;100701.28;;;12.45;62.50
40490;BME280;26196;52.302;10.572;2023-01-06T05:57:57;100693.31;;;12.48;62.33
40490;BME280;26196;52.302;10.572;2023-01-06T06:01:57;100696.72;;;12.52;62.97
40490;BME280;26196;52.302;10.572;2023-01-06T06:06:02;100693.28;;;12.50;62.55
40490;BME280;26196;52.302;10.572;2023-01-06T06:10:03;100695.84;;;12.51;62.77
40490;BME280;26196;52.302;10.572;2023-01-06T06:14:04;100700.19;;;12.52;63.78
40490;BME280;26196;52.302;10.572;2023-01-06T06:18:04;100684.44;;;12.52;63.34
40490;BME280;26196;52.302;10.572;2023-01-06T06:22:04;100692.22;;;12.55;62.82
40490;BME280;26196;52.302;10.572;2023-01-06T06:26:05;100670.47;;;12.52;62.75
40490;BME280;26196;52.302;10.572;2023-01-06T06:30:06;100679.91;;;12.57;63.23
40490;BME280;26196;52.302;10.572;2023-01-06T06:34:11;100693.13;;;12.54;63.18
40490;BME280;26196;52.302;10.572;2023-01-06T06:38:11;100685.19;;;12.56;62.93
40490;BME280;26196;52.302;10.572;2023-01-06T06:42:11;100683.50;;;12.55;63.60
40490;BME280;26196;52.302;10.572;2023-01-06T06:46:12;100671.19;;;12.57;63.32
40490;BME280;26196;52.302;10.572;2023-01-06T06:50:12;100671.09;;;12.58;63.56
40490;BME280;26196;52.302;10.572;2023-01-06T06:54:13;100651.03;;;12.57;63.39
40490;BME280;26196;52.302;10.572;2023-01-06T06:58:13;100666.69;;;12.59;62.89
40490;BME280;26196;52.302;10.572;2023-01-06T07:02:14;100658.03;;;12.57;62.53
40490;BME280;26196;52.302;10.572;2023-01-06T07:06:20;100657.97;;;12.58;63.42
40490;BME280;26196;52.302;10.572;2023-01-06T07:10:22;100648.28;;;12.60;62.95
40490;BME280;26196;52.302;10.572;2023-01-06T07:14:22;100651.84;;;12.59;62.31
40490;BME280;26196;52.302;10.572;2023-01-06T07:18:22;100632.88;;;12.50;63.19
40490;BME280;26196;52.302;10.572;2023-01-06T07:22:22;100657.88;;;12.61;63.34
40490;BME280;26196;52.302;10.572;2023-01-06T07:26:23;100646.47;;;12.62;62.60
40490;BME280;26196;52.302;10.572;2023-01-06T07:30:25;100643.84;;;12.62;62.42
40490;BME280;26196;52.302;10.572;2023-01-06T07:34:26;100635.91;;;12.64;62.48
40490;BME280;26196;52.302;10.572;2023-01-06T07:38:26;100647.31;;;12.63;62.44
40490;BME280;26196;52.302;10.572;2023-01-06T07:42:26;100636.69;;;12.67;62.13
40490;BME280;26196;52.302;10.572;2023-01-06T07:46:27;100630.50;;;12.68;61.92
40490;BME280;26196;52.302;10.572;2023-01-06T07:50:28;100627.13;;;12.65;61.52
40490;BME280;26196;52.302;10.572;2023-01-06T07:54:29;100622.69;;;12.67;62.35
40490;BME280;26196;52.302;10.572;2023-01-06T07:58:30;100622.72;;;12.65;62.53
40490;BME280;26196;52.302;10.572;2023-01-06T08:02:30;100627.94;;;12.67;62.92
40490;BME280;26196;52.302;10.572;2023-01-06T08:06:31;100609.56;;;12.67;62.04
40490;BME280;26196;52.302;10.572;2023-01-06T08:10:31;100615.66;;;12.67;62.26
40490;BME280;26196;52.302;10.572;2023-01-06T08:14:32;100617.38;;;12.68;61.89
40490;BME280;26196;52.302;10.572;2023-01-06T08:18:32;100622.63;;;12.68;62.28
40490;BME280;26196;52.302;10.572;2023-01-06T08:22:33;100621.78;;;12.68;62.29
40490;BME280;26196;52.302;10.572;2023-01-06T08:26:33;100620.91;;;12.67;62.63
40490;BME280;26196;52.302;10.572;2023-01-06T08:30:33;100631.31;;;12.70;62.65
40490;BME280;26196;52.302;10.572;2023-01-06T08:34:38;100637.44;;;12.69;63.02
40490;BME280;26196;52.302;10.572;2023-01-06T08:38:39;100630.38;;;12.72;63.24
40490;BME280;26196;52.302;10.572;2023-01-06T08:42:40;100638.22;;;12.73;62.96
40490;BME280;26196;52.302;10.572;2023-01-06T08:46:40;100654.03;;;12.72;63.14
40490;BME280;26196;52.302;10.572;2023-01-06T08:50:41;100647.78;;;12.76;63.76
40490;BME280;26196;52.302;10.572;2023-01-06T08:54:42;100652.91;;;12.79;63.77
40490;BME280;26196;52.302;10.572;2023-01-06T08:58:42;100652.91;;;12.79;64.10
40490;BME280;26196;52.302;10.572;2023-01-06T09:02:43;100658.22;;;12.77;63.70
40490;BME280;26196;52.302;10.572;2023-01-06T09:06:43;100642.44;;;12.77;63.66
40490;BME280;26196;52.302;10.572;2023-01-06T09:10:44;100638.88;;;12.80;63.65
40490;BME280;26196;52.302;10.572;2023-01-06T09:14:44;100637.91;;;12.82;63.12
40490;BME280;26196;52.302;10.572;2023-01-06T09:18:45;100639.66;;;12.82;63.17
40490;BME280;26196;52.302;10.572;2023-01-06T09:22:49;100647.56;;;12.82;63.83
40490;BME280;26196;52.302;10.572;2023-01-06T09:26:49;100641.41;;;12.83;63.23
40490;BME280;26196;52.302;10.572;2023-01-06T09:30:50;100641.28;;;12.86;63.53
40490;BME280;26196;52.302;10.572;2023-01-06T09:34:50;100643.97;;;12.84;63.93
40490;BME280;26196;52.302;10.572;2023-01-06T09:38:50;100639.56;;;12.85;63.26
40490;BME280;26196;52.302;10.572;2023-01-06T09:43:19;100637.75;;;12.87;63.64
40490;BME280;26196;52.302;10.572;2023-01-06T09:47:32;100631.63;;;12.86;64.12
40490;BME280;26196;52.302;10.572;2023-01-06T09:51:36;100622.94;;;12.84;64.14
40490;BME280;26196;52.302;10.572;2023-01-06T09:56:08;100614.06;;;12.88;64.32
40490;BME280;26196;52.302;10.572;2023-01-06T10:00:18;100614.81;;;12.92;63.83
40490;BME280;26196;52.302;10.572;2023-01-06T10:04:28;100610.41;;;12.92;64.32
40490;BME280;26196;52.302;10.572;2023-01-06T10:08:40;100625.31;;;12.92;64.89
40490;BME280;26196;52.302;10.572;2023-01-06T10:21:32;100610.34;;;12.94;64.42
40490;BME280;26196;52.302;10.572;2023-01-06T10:25:45;100606.69;;;12.98;64.31
40490;BME280;26196;52.302;10.572;2023-01-06T10:29:51;100611.94;;;12.98;64.20
40490;BME280;26196;52.302;10.572;2023-01-06T10:33:55;100607.56;;;12.99;65.18
40490;BME280;26196;52.302;10.572;2023-01-06T10:38:01;100610.13;;;13.00;64.99
40490;BME280;26196;52.302;10.572;2023-01-06T10:46:33;100609.25;;;13.01;65.05
40490;BME280;26196;52.302;10.572;2023-01-06T10:50:34;100607.38;;;13.03;65.06
40490;BME280;26196;52.302;10.572;2023-01-06T10:54:35;100604.84;;;13.02;64.99
40490;BME280;26196;52.302;10.572;2023-01-06T10:58:47;100611.78;;;13.03;65.00
40490;BME280;26196;52.302;10.572;2023-01-06T11:02:52;100607.34;;;13.05;64.39
40490;BME280;26196;52.302;10.572;2023-01-06T11:06:57;100605.56;;;13.05;64.31
40490;BME280;26196;52.302;10.572;2023-01-06T11:10:58;100605.56;;;13.05;64.82
40490;BME280;26196;52.302;10.572;2023-01-06T11:15:05;100598.53;;;13.06;64.94
40490;BME280;26196;52.302;10.572;2023-01-06T11:19:07;100601.13;;;13.07;65.10
40490;BME280;26196;52.302;10.572;2023-01-06T11:23:21;100608.09;;;13.08;65.03
40490;BME280;26196;52.302;10.572;2023-01-06T11:27:22;100603.50;;;13.13;64.32
40490;BME280;26196;52.302;10.572;2023-01-06T11:31:24;100599.31;;;13.09;64.90
40490;BME280;26196;52.302;10.572;2023-01-06T11:35:31;100598.34;;;13.12;64.32
40490;BME280;26196;52.302;10.572;2023-01-06T11:39:34;100594.63;;;13.18;64.91
40490;BME280;26196;52.302;10.572;2023-01-06T11:43:36;100597.38;;;13.14;64.39
40490;BME280;26196;52.302;10.572;2023-01-06T11:47:38;100600.00;;;13.14;64.96
40490;BME280;26196;52.302;10.572;2023-01-06T11:55:54;100600.81;;;13.17;64.17
40490;BME280;26196;52.302;10.572;2023-01-06T12:00:24;100599.03;;;13.17;64.19
40490;BME280;26196;52.302;10.572;2023-01-06T12:08:45;100601.66;;;13.17;64.63
40490;BME280;26196;52.302;10.572;2023-01-06T12:12:47;100604.66;;;13.31;64.08
40490;BME280;26196;52.302;10.572;2023-01-06T12:21:01;100609.75;;;13.36;64.91
40490;BME280;26196;52.302;10.572;2023-01-06T12:25:04;100621.00;;;13.40;64.23
40490;BME280;26196;52.302;10.572;2023-01-06T12:29:06;100600.31;;;13.30;64.21
40490;BME280;26196;52.302;10.572;2023-01-06T12:33:41;100622.31;;;13.51;64.11
40490;BME280;26196;52.302;10.572;2023-01-06T12:37:45;100627.50;;;13.53;65.23
40490;BME280;26196;52.302;10.572;2023-01-06T12:41:56;100619.56;;;13.54;64.72
40490;BME280;26196;52.302;10.572;2023-01-06T12:46:16;100616.81;;;13.57;64.32
40490;BME280;26196;52.302;10.572;2023-01-06T12:50:45;100628.84;;;13.65;63.45
40490;BME280;26196;52.302;10.572;2023-01-06T12:54:51;100638.38;;;13.67;63.86
40490;BME280;26196;52.302;10.572;2023-01-06T12:59:14;100644.31;;;13.72;63.99
40490;BME280;26196;52.302;10.572;2023-01-06T13:08:28;100652.50;;;13.65;65.25
40490;BME280;26196;52.302;10.572;2023-01-06T13:12:54;100654.44;;;13.60;65.61
40490;BME280;26196;52.302;10.572;2023-01-06T13:17:04;100650.13;;;13.59;65.47
40490;BME280;26196;52.302;10.572;2023-01-06T13:21:14;100653.81;;;13.53;65.62
40490;BME280;26196;52.302;10.572;2023-01-06T13:39:03;100660.06;;;13.50;65.36
40490;BME280;26196;52.302;10.572;2023-01-06T13:43:20;100652.09;;;13.52;65.77
40490;BME280;26196;52.302;10.572;2023-01-06T13:47:22;100655.59;;;13.52;66.00
40490;BME280;26196;52.302;10.572;2023-01-06T13:51:27;100659.81;;;13.56;65.39
40490;BME280;26196;52.302;10.572;2023-01-06T13:55:32;100679.25;;;13.52;65.71
40490;BME280;26196;52.302;10.572;2023-01-06T13:59:48;100671.56;;;13.48;65.45
40490;BME280;26196;52.302;10.572;2023-01-06T14:03:50;100691.63;;;13.50;65.01
40490;BME280;26196;52.302;10.572;2023-01-06T14:07:51;100684.34;;;13.57;65.46
40490;BME280;26196;52.302;10.572;2023-01-06T14:11:53;100686.97;;;13.57;64.73
40490;BME280;26196;52.302;10.572;2023-01-06T14:16:03;100681.59;;;13.60;64.53
40490;BME280;26196;52.302;10.572;2023-01-06T14:20:06;100690.94;;;13.69;63.38
40490;BME280;26196;52.302;10.572;2023-01-06T14:24:25;100703.50;;;13.61;64.42
40490;BME280;26196;52.302;10.572;2023-01-06T14:28:30;100713.16;;;13.60;64.90
40490;BME280;26196;52.302;10.572;2023-01-06T14:36:34;100714.66;;;13.67;63.96
40490;BME280;26196;52.302;10.572;2023-01-06T14:40:46;100718.16;;;13.68;63.94
40490;BME280;26196;52.302;10.572;2023-01-06T14:44:52;100718.50;;;13.59;64.43
40490;BME280;26196;52.302;10.572;2023-01-06T14:49:00;100715.94;;;13.55;63.70
40490;BME280;26196;52.302;10.572;2023-01-06T14:53:06;100718.69;;;13.52;63.88
40490;BME280;26196;52.302;10.572;2023-01-06T14:57:21;100726.47;;;13.55;64.17
40490;BME280;26196;52.302;10.572;2023-01-06T15:01:31;100720.44;;;13.53;64.20
40490;BME280;26196;52.302;10.572;2023-01-06T15:05:35;100726.69;;;13.49;63.82
40490;BME280;26196;52.302;10.572;2023-01-06T15:09:36;100724.78;;;13.54;64.14
40490;BME280;26196;52.302;10.572;2023-01-06T15:13:36;100726.59;;;13.52;63.78
40490;BME280;26196;52.302;10.572;2023-01-06T15:17:36;100723.91;;;13.54;63.27
40490;BME280;26196;52.302;10.572;2023-01-06T15:21:38;100744.97;;;13.54;63.52
40490;BME280;26196;52.302;10.572;2023-01-06T15:25:39;100740.66;;;13.51;64.32
40490;BME280;26196;52.302;10.572;2023-01-06T15:29:49;100742.38;;;13.52;63.97
40490;BME280;26196;52.302;10.572;2023-01-06T15:33:50;100746.84;;;13.50;64.05
40490;BME280;26196;52.302;10.572;2023-01-06T15:37:58;100744.25;;;13.49;63.49
40490;BME280;26196;52.302;10.572;2023-01-06T15:42:00;100745.97;;;13.50;63.69
40490;BME280;26196;52.302;10.572;2023-01-06T15:46:06;100752.97;;;13.51;63.59
40490;BME280;26196;52.302;10.572;2023-01-06T15:50:15;100763.41;;;13.52;63.61
40490;BME280;26196;52.302;10.572;2023-01-06T15:54:16;100761.69;;;13.51;63.39
40490;BME280;26196;52.302;10.572;2023-01-06T15:58:27;100762.56;;;13.52;63.47
40490;BME280;26196;52.302;10.572;2023-01-06T16:02:30;100762.72;;;13.47;62.81
40490;BME280;26196;52.302;10.572;2023-01-06T16:06:33;100781.81;;;13.52;62.54
40490;BME280;26196;52.302;10.572;2023-01-06T16:10:37;100774.03;;;13.49;63.04
40490;BME280;26196;52.302;10.572;2023-01-06T16:14:38;100775.00;;;13.47;62.88
40490;BME280;26196;52.302;10.572;2023-01-06T16:18:51;100770.72;;;13.44;62.65
40490;BME280;26196;52.302;10.572;2023-01-06T16:22:54;100778.56;;;13.46;62.71
40490;BME280;26196;52.302;10.572;2023-01-06T16:26:58;100782.84;;;13.48;62.85
40490;BME280;26196;52.302;10.572;2023-01-06T16:31:10;100789.88;;;13.48;62.86
40490;BME280;26196;52.302;10.572;2023-01-06T16:35:17;100791.59;;;13.49;62.66
40490;BME280;26196;52.302;10.572;2023-01-06T16:39:17;100784.66;;;13.46;62.62
40490;BME280;26196;52.302;10.572;2023-01-06T16:43:18;100786.38;;;13.47;62.51
40490;BME280;26196;52.302;10.572;2023-01-06T16:47:18;100792.56;;;13.46;62.13
40490;BME280;26196;52.302;10.572;2023-01-06T16:51:19;100797.00;;;13.44;62.33
40490;BME280;26196;52.302;10.572;2023-01-06T16:55:21;100790.88;;;13.44;62.21
40490;BME280;26196;52.302;10.572;2023-01-06T16:59:21;100792.56;;;13.46;62.73
40490;BME280;26196;52.302;10.572;2023-01-06T17:03:23;100801.00;;;13.56;61.59
40490;BME280;26196;52.302;10.572;2023-01-06T17:07:24;100791.56;;;13.50;62.09
40490;BME280;26196;52.302;10.572;2023-01-06T17:11:27;100793.47;;;13.45;61.83
40490;BME280;26196;52.302;10.572;2023-01-06T17:15:28;100795.19;;;13.46;62.08
40490;BME280;26196;52.302;10.572;2023-01-06T17:19:32;100789.06;;;13.46;61.92
40490;BME280;26196;52.302;10.572;2023-01-06T17:23:40;100795.28;;;13.43;62.10
40490;BME280;26196;52.302;10.572;2023-01-06T17:27:45;100796.19;;;13.42;61.82
40490;BME280;26196;52.302;10.572;2023-01-06T17:31:51;100797.00;;;13.44;61.52
40490;BME280;26196;52.302;10.572;2023-01-06T17:35:55;100804.00;;;13.45;61.40
40490;BME280;26196;52.302;10.572;2023-01-06T17:39:55;100814.59;;;13.42;62.15
40490;BME280;26196;52.302;10.572;2023-01-06T17:43:56;100811.94;;;13.44;61.76
40490;BME280;26196;52.302;10.572;2023-01-06T17:47:56;100811.19;;;13.40;61.53
40490;BME280;26196;52.302;10.572;2023-01-06T17:51:58;100819.97;;;13.39;61.93
40490;BME280;26196;52.302;10.572;2023-01-06T17:56:07;100829.66;;;13.37;62.02
40490;BME280;26196;52.302;10.572;2023-01-06T18:00:17;100820.22;;;13.31;61.45
40490;BME280;26196;52.302;10.572;2023-01-06T18:04:18;100828.72;;;13.40;61.38
40490;BME280;26196;52.302;10.572;2023-01-06T18:08:18;100837.25;;;13.46;61.09
40490;BME280;26196;52.302;10.572;2023-01-06T18:12:20;100842.41;;;13.49;61.14
40490;BME280;26196;52.302;10.572;2023-01-06T18:20:21;100849.06;;;13.60;61.02
40490;BME280;26196;52.302;10.572;2023-01-06T18:24:30;100843.97;;;13.55;61.11
40490;BME280;26196;52.302;10.572;2023-01-06T18:28:34;100851.59;;;13.63;61.09
40490;BME280;26196;52.302;10.572;2023-01-06T18:32:35;100843.72;;;13.63;60.65
40490;BME280;26196;52.302;10.572;2023-01-06T18:36:35;100841.88;;;13.65;60.38
40490;BME280;26196;52.302;10.572;2023-01-06T18:40:36;100851.56;;;13.64;60.53
40490;BME280;26196;52.302;10.572;2023-01-06T18:44:37;100846.19;;;13.67;60.46
40490;BME280;26196;52.302;10.572;2023-01-06T18:48:37;100847.88;;;13.68;61.19
40490;BME280;26196;52.302;10.572;2023-01-06T18:52:40;100847.84;;;13.70;59.81
40490;BME280;26196;52.302;10.572;2023-01-06T18:56:43;100853.00;;;13.73;59.61
40490;BME280;26196;52.302;10.572;2023-01-06T19:00:47;100857.16;;;13.80;60.29
40490;BME280;26196;52.302;10.572;2023-01-06T19:04:47;100857.53;;;13.69;60.20
40490;BME280;26196;52.302;10.572;2023-01-06T19:08:49;100867.34;;;13.64;60.55
40490;BME280;26196;52.302;10.572;2023-01-06T19:12:50;100873.69;;;13.59;60.10
40490;BME280;26196;52.302;10.572;2023-01-06T19:16:53;100872.84;;;13.56;59.89
40490;BME280;26196;52.302;10.572;2023-01-06T19:20:54;100872.16;;;13.51;59.54
40490;BME280;26196;52.302;10.572;2023-01-06T19:29:15;100867.09;;;13.45;59.56
40490;BME280;26196;52.302;10.572;2023-01-06T19:33:21;100874.19;;;13.43;59.54
40490;BME280;26196;52.302;10.572;2023-01-06T19:37:22;100871.59;;;13.42;58.57
40490;BME280;26196;52.302;10.572;2023-01-06T19:45:29;100860.44;;;13.35;58.27
40490;BME280;26196;52.302;10.572;2023-01-06T19:49:39;100858.69;;;13.34;57.47
40490;BME280;26196;52.302;10.572;2023-01-06T19:53:44;100863.22;;;13.30;57.68
40490;BME280;26196;52.302;10.572;2023-01-06T19:57:49;100865.88;;;13.29;57.97
40490;BME280;26196;52.302;10.572;2023-01-06T20:06:16;100859.09;;;13.22;58.06
40490;BME280;26196;52.302;10.572;2023-01-06T20:10:17;100865.19;;;13.22;58.67
40490;BME280;26196;52.302;10.572;2023-01-06T20:14:18;100869.59;;;13.22;58.03
40490;BME280;26196;52.302;10.572;2023-01-06T20:18:18;100866.19;;;13.18;57.61
40490;BME280;26196;52.302;10.572;2023-01-06T20:22:19;100873.22;;;13.18;57.40
40490;BME280;26196;52.302;10.572;2023-01-06T20:26:21;100874.19;;;13.15;57.11
40490;BME280;26196;52.302;10.572;2023-01-06T20:30:21;100879.34;;;13.18;56.75
40490;BME280;26196;52.302;10.572;2023-01-06T20:34:21;100881.25;;;13.13;56.85
40490;BME280;26196;52.302;10.572;2023-01-06T20:38:22;100883.97;;;13.10;56.72
40490;BME280;26196;52.302;10.572;2023-01-06T20:42:22;100882.28;;;13.09;56.71
40490;BME280;26196;52.302;10.572;2023-01-06T20:46:23;100872.00;;;13.01;56.82
40490;BME280;26196;52.302;10.572;2023-01-06T20:50:23;100878.00;;;13.05;56.83
40490;BME280;26196;52.302;10.572;2023-01-06T20:54:26;100880.75;;;13.02;56.66
40490;BME280;26196;52.302;10.572;2023-01-06T20:58:27;100889.50;;;13.01;56.70
40490;BME280;26196;52.302;10.572;2023-01-06T21:02:27;100887.06;;;12.96;56.55
40490;BME280;26196;52.302;10.572;2023-01-06T21:06:27;100879.19;;;12.95;56.87
40490;BME280;26196;52.302;10.572;2023-01-06T21:10:28;100881.63;;;13.01;57.39
40490;BME280;26196;52.302;10.572;2023-01-06T21:14:28;100875.47;;;13.02;57.38
40490;BME280;26196;52.302;10.572;2023-01-06T21:18:29;100879.09;;;12.98;57.05
40490;BME280;26196;52.302;10.572;2023-01-06T21:22:30;100876.44;;;12.99;57.50
40490;BME280;26196;52.302;10.572;2023-01-06T21:26:31;100869.38;;;13.01;57.08
40490;BME280;26196;52.302;10.572;2023-01-06T21:30:31;100872.97;;;12.99;57.00
40490;BME280;26196;52.302;10.572;2023-01-06T21:34:31;100882.78;;;12.92;56.60
40490;BME280;26196;52.302;10.572;2023-01-06T21:38:32;100886.34;;;12.91;56.59
40490;BME280;26196;52.302;10.572;2023-01-06T21:42:34;100881.97;;;12.90;56.49
40490;BME280;26196;52.302;10.572;2023-01-06T21:46:52;100882.97;;;12.86;56.44
40490;BME280;26196;52.302;10.572;2023-01-06T21:50:53;100892.66;;;12.84;56.22
40490;BME280;26196;52.302;10.572;2023-01-06T21:54:53;100883.16;;;12.80;56.60
40490;BME280;26196;52.302;10.572;2023-01-06T21:58:54;100881.41;;;12.80;56.26
40490;BME280;26196;52.302;10.572;2023-01-06T22:02:54;100863.16;;;12.76;56.19
40490;BME280;26196;52.302;10.572;2023-01-06T22:06:58;100869.25;;;12.76;56.76
40490;BME280;26196;52.302;10.572;2023-01-06T22:11:00;100870.19;;;12.75;56.40
40490;BME280;26196;52.302;10.572;2023-01-06T22:15:02;100885.16;;;12.72;55.75
40490;BME280;26196;52.302;10.572;2023-01-06T22:19:03;100892.16;;;12.73;56.27
40490;BME280;26196;52.302;10.572;2023-01-06T22:23:10;100890.38;;;12.73;56.25
40490;BME280;26196;52.302;10.572;2023-01-06T22:27:11;100896.34;;;12.78;56.66
40490;BME280;26196;52.302;10.572;2023-01-06T22:31:12;100885.13;;;12.73;55.83
40490;BME280;26196;52.302;10.572;2023-01-06T22:35:13;100886.97;;;12.69;55.84
40490;BME280;26196;52.302;10.572;2023-01-06T22:39:14;100887.03;;;12.68;56.07